createdAt,value
2023-01-04T00:00:46.648Z,100.00
2023-01-04T00:03:33.577Z,100.00
2023-01-04T00:06:16.355Z,100.00
2023-01-04T00:09:10.387Z,100.00
2023-01-04T00:12:04.325Z,100.00
2023-01-04T00:14:58.359Z,100.00
2023-01-04T00:17:52.367Z,100.00
2023-01-04T00:20:46.344Z,100.00
2023-01-04T00:23:40.387Z,100.00
2023-01-04T00:26:37.362Z,100.00
2023-01-04T00:29:31.372Z,100.00
2023-01-04T00:32:25.371Z,100.00
2023-01-04T00:35:27.153Z,100.00
2023-01-04T00:38:05.514Z,100.00
2023-01-04T00:40:52.363Z,100.00
2023-01-04T00:43:25.467Z,100.00
2023-01-04T00:46:14.435Z,100.00
2023-01-04T00:49:00.176Z,100.00
2023-01-04T00:51:55.393Z,100.00
2023-01-04T00:54:49.393Z,100.00
2023-01-04T00:57:43.354Z,100.00
2023-01-04T01:00:37.375Z,100.00
2023-01-04T01:03:24.498Z,100.00
2023-01-04T01:05:57.477Z,100.00
2023-01-04T01:08:45.472Z,100.00
2023-01-04T01:11:19.476Z,100.00
2023-01-04T01:14:06.379Z,100.00
2023-01-04T01:16:57.186Z,100.00
2023-01-04T01:19:45.362Z,100.00
2023-01-04T01:22:18.484Z,100.00
2023-01-04T01:25:05.347Z,100.00
2023-01-04T01:27:38.491Z,100.00
2023-01-04T01:30:25.388Z,100.00
2023-01-04T01:32:58.484Z,100.00
2023-01-04T01:35:45.393Z,100.00
2023-01-04T01:38:18.511Z,100.00
2023-01-04T01:41:05.460Z,100.00
2023-01-04T01:44:02.548Z,100.00
2023-01-04T01:46:53.519Z,100.00
2023-01-04T01:49:35.548Z,100.00
2023-01-04T01:52:28.408Z,100.00
2023-01-04T01:55:15.987Z,100.00
2023-01-04T01:58:02.381Z,100.00
2023-01-04T02:00:36.522Z,100.00
2023-01-04T02:03:26.487Z,100.00
2023-01-04T02:06:09.417Z,100.00
2023-01-04T02:09:03.394Z,100.00
2023-01-04T02:11:57.392Z,100.00
2023-01-04T02:14:51.420Z,100.00
2023-01-04T02:17:57.407Z,100.00
2023-01-04T02:20:57.404Z,100.00
2023-01-04T02:23:52.505Z,100.00
2023-01-04T02:26:58.432Z,100.00
2023-01-04T02:30:00.399Z,100.00
2023-01-04T02:33:00.428Z,100.00
2023-01-04T02:36:23.418Z,100.00
2023-01-04T02:39:21.427Z,100.00
2023-01-04T02:42:18.404Z,100.00
2023-01-04T02:45:12.454Z,100.00
2023-01-04T02:48:04.465Z,100.00
2023-01-04T02:51:05.406Z,100.00
2023-01-04T02:53:51.442Z,100.00
2023-01-04T02:57:06.224Z,100.00
2023-01-04T03:00:01.485Z,100.00
2023-01-04T03:03:25.466Z,100.00
2023-01-04T03:06:31.419Z,100.00
2023-01-04T03:09:22.420Z,100.00
2023-01-04T03:12:40.433Z,100.00
2023-01-04T03:15:41.484Z,100.00
2023-01-04T03:18:35.420Z,100.00
2023-01-04T03:21:11.532Z,100.00
2023-01-04T03:24:22.431Z,100.00
2023-01-04T03:27:20.133Z,100.00
2023-01-04T03:30:37.414Z,100.00
2023-01-04T03:33:43.409Z,100.00
2023-01-04T03:36:47.608Z,100.00
2023-01-04T03:40:02.434Z,100.00
2023-01-04T03:43:22.411Z,100.00
2023-01-04T03:46:40.521Z,100.00
2023-01-04T03:49:41.426Z,100.00
2023-01-04T03:52:17.605Z,100.00
2023-01-04T03:55:07.439Z,100.00
2023-01-04T03:57:42.547Z,100.00
2023-01-04T04:00:30.449Z,100.00
2023-01-04T04:03:07.453Z,100.00
2023-01-04T04:06:13.435Z,100.00
2023-01-04T04:08:46.524Z,100.00
2023-01-04T04:11:39.434Z,100.00
2023-01-04T04:14:12.517Z,100.00
2023-01-04T04:17:14.429Z,100.00
2023-01-04T04:20:01.434Z,100.00
2023-01-04T04:22:34.520Z,100.00
2023-01-04T04:25:21.431Z,100.00
2023-01-04T04:28:01.430Z,100.00
2023-01-04T04:30:55.452Z,100.00
2023-01-04T04:33:42.429Z,100.00
2023-01-04T04:36:16.642Z,100.00
2023-01-04T04:39:03.452Z,100.00
2023-01-04T04:41:46.426Z,100.00
2023-01-04T04:44:33.442Z,100.00
2023-01-04T04:47:06.604Z,100.00
2023-01-04T04:49:53.464Z,100.00
2023-01-04T04:52:26.572Z,100.00
2023-01-04T04:55:14.446Z,100.00
2023-01-04T04:57:47.568Z,100.00
2023-01-04T05:00:34.472Z,100.00
2023-01-04T05:03:08.787Z,100.00
2023-01-04T05:05:55.452Z,100.00
2023-01-04T05:08:35.469Z,100.00
2023-01-04T05:11:22.465Z,100.00
2023-01-04T05:14:02.444Z,100.00
2023-01-04T05:16:49.484Z,100.00
2023-01-04T05:19:22.536Z,100.00
2023-01-04T05:22:09.435Z,100.00
2023-01-04T05:24:42.553Z,100.00
2023-01-04T05:27:29.449Z,100.00
2023-01-04T05:30:21.053Z,100.00
2023-01-04T05:33:08.469Z,100.00
2023-01-04T05:35:41.596Z,100.00
2023-01-04T05:38:28.468Z,100.00
2023-01-04T05:41:02.587Z,100.00
2023-01-04T05:43:49.459Z,100.00
2023-01-04T05:46:22.570Z,100.00
2023-01-04T05:49:09.505Z,100.00
2023-01-04T05:51:49.491Z,100.00
2023-01-04T05:54:43.490Z,100.00
2023-01-04T05:57:30.477Z,100.00
2023-01-04T06:00:03.555Z,100.00
2023-01-04T06:02:50.567Z,100.00
2023-01-04T06:05:23.559Z,100.00
2023-01-04T06:08:10.505Z,100.00
2023-01-04T06:10:43.573Z,100.00
2023-01-04T06:13:30.492Z,100.00
2023-01-04T06:16:10.515Z,100.00
2023-01-04T06:19:04.465Z,100.00
2023-01-04T06:21:51.504Z,100.00
2023-01-04T06:24:24.575Z,100.00
2023-01-04T06:27:11.488Z,100.00
2023-01-04T06:29:44.587Z,100.00
2023-01-04T06:32:31.478Z,100.00
2023-01-04T06:35:11.487Z,100.00
2023-01-04T06:37:58.491Z,100.00
2023-01-04T06:40:38.485Z,100.00
2023-01-04T06:43:25.481Z,100.00
2023-01-04T06:46:07.607Z,100.00
2023-01-04T06:48:54.493Z,100.00
2023-01-04T06:51:35.520Z,100.00
2023-01-04T06:54:22.527Z,100.00
2023-01-04T06:56:55.596Z,100.00
2023-01-04T06:59:42.466Z,100.00
2023-01-04T07:02:20.804Z,100.00
2023-01-04T07:05:07.497Z,100.00
2023-01-04T07:07:48.550Z,100.00
2023-01-04T07:10:43.489Z,100.00
2023-01-04T07:13:37.524Z,100.00
2023-01-04T07:16:24.555Z,100.00
2023-01-04T07:18:57.723Z,100.00
2023-01-04T07:21:44.516Z,100.00
2023-01-04T07:24:17.635Z,100.00
2023-01-04T07:27:06.503Z,100.00
2023-01-04T07:29:50.506Z,100.00
2023-01-04T07:32:44.523Z,100.00
2023-01-04T07:35:31.500Z,100.00
2023-01-04T07:38:04.710Z,100.00
2023-01-04T07:40:56.258Z,100.00
2023-01-04T07:43:30.649Z,100.00
2023-01-04T07:46:17.583Z,100.00
2023-01-04T07:48:50.643Z,100.00
2023-01-04T07:51:38.523Z,100.00
2023-01-04T07:54:18.517Z,100.00
2023-01-04T07:57:12.526Z,100.00
2023-01-04T07:59:59.512Z,100.00
2023-01-04T08:02:32.766Z,100.00
2023-01-04T08:05:19.593Z,100.00
2023-01-04T08:07:59.607Z,100.00
2023-01-04T08:10:53.524Z,100.00
2023-01-04T08:13:47.513Z,100.00
2023-01-04T08:16:38.527Z,100.00
2023-01-04T08:19:19.799Z,100.00
2023-01-04T08:22:06.507Z,100.00
2023-01-04T08:24:46.575Z,100.00
2023-01-04T08:27:40.518Z,100.00
2023-01-04T08:30:34.536Z,100.00
2023-01-04T08:33:29.528Z,100.00
2023-01-04T08:36:31.555Z,100.00
2023-01-04T08:39:18.524Z,100.00
2023-01-04T08:41:58.947Z,100.00
2023-01-04T08:44:52.854Z,100.00
2023-01-04T08:47:28.626Z,100.00
2023-01-04T08:50:15.569Z,100.00
2023-01-04T08:52:56.538Z,100.00
2023-01-04T08:55:43.519Z,100.00
2023-01-04T08:58:23.543Z,100.00
2023-01-04T09:01:12.646Z,100.00
2023-01-04T09:03:52.559Z,100.00
2023-01-04T09:06:39.553Z,100.00
2023-01-04T09:09:19.547Z,100.00
2023-01-04T09:12:06.613Z,100.00
2023-01-04T09:14:39.924Z,100.00
2023-01-04T09:17:26.548Z,100.00
2023-01-04T09:19:59.687Z,100.00
2023-01-04T09:22:46.579Z,100.00
2023-01-04T09:25:19.678Z,100.00
2023-01-04T09:28:06.548Z,100.00
2023-01-04T09:31:00.644Z,100.00
2023-01-04T09:34:13.525Z,100.00
2023-01-04T09:36:44.713Z,100.00
2023-01-04T09:39:32.548Z,100.00
2023-01-04T09:42:15.556Z,100.00
2023-01-04T09:45:23.703Z,100.00
2023-01-04T09:48:24.833Z,100.00
2023-01-04T09:51:11.649Z,100.00
2023-01-04T09:54:09.553Z,100.00
2023-01-04T09:56:51.555Z,100.00
2023-01-04T09:59:47.640Z,100.00
2023-01-04T10:02:55.881Z,100.00
2023-01-04T10:05:34.659Z,100.00
2023-01-04T10:08:33.604Z,100.00
2023-01-04T10:11:54.602Z,100.00
2023-01-04T10:14:57.579Z,100.00
2023-01-04T10:21:49.623Z,100.00
2023-01-04T10:24:55.565Z,100.00
2023-01-04T10:27:56.605Z,100.00
2023-01-04T10:31:39.669Z,100.00
2023-01-04T10:34:38.573Z,100.00
2023-01-04T10:37:21.850Z,100.00
2023-01-04T10:40:09.582Z,100.00
2023-01-04T10:43:26.596Z,100.00
2023-01-04T10:46:27.707Z,100.00
2023-01-04T10:49:11.725Z,100.00
2023-01-04T10:52:05.611Z,100.00
2023-01-04T10:55:05.606Z,100.00
2023-01-04T10:58:17.572Z,100.00
2023-01-04T11:01:30.746Z,100.00
2023-01-04T11:04:28.684Z,100.00
2023-01-04T11:07:25.595Z,100.00
2023-01-04T11:10:11.703Z,100.00
2023-01-04T11:12:59.578Z,100.00
2023-01-04T11:15:32.688Z,100.00
2023-01-04T11:18:20.568Z,100.00
2023-01-04T11:21:00.599Z,100.00
2023-01-04T11:23:47.603Z,100.00
2023-01-04T11:26:29.383Z,100.00
2023-01-04T11:29:37.584Z,100.00
2023-01-04T11:32:55.612Z,100.00
2023-01-04T11:35:51.607Z,100.00
2023-01-04T11:38:42.584Z,100.00
2023-01-04T11:41:36.604Z,100.00
2023-01-04T11:44:25.574Z,100.00
2023-01-04T11:47:29.732Z,100.00
2023-01-04T11:50:43.590Z,100.00
2023-01-04T11:53:30.746Z,100.00
2023-01-04T11:56:27.597Z,100.00
2023-01-04T11:59:30.632Z,100.00
2023-01-04T12:05:45.609Z,100.00
2023-01-04T12:08:49.639Z,100.00
2023-01-04T12:11:47.625Z,100.00
2023-01-04T12:14:35.613Z,100.00
2023-01-04T12:17:30.586Z,100.00
2023-01-04T12:20:30.699Z,100.00
2023-01-04T12:23:26.606Z,100.00
2023-01-04T12:26:20.613Z,100.00
2023-01-04T12:29:33.612Z,100.00
2023-01-04T12:32:20.625Z,100.00
2023-01-04T12:34:55.730Z,100.00
2023-01-04T12:37:48.728Z,100.00
2023-01-04T12:41:00.618Z,100.00
2023-01-04T12:43:47.630Z,100.00
2023-01-04T12:46:54.320Z,100.00
2023-01-04T12:49:46.616Z,100.00
2023-01-04T12:52:34.400Z,100.00
2023-01-04T12:55:47.612Z,100.00
2023-01-04T13:02:21.870Z,100.00
2023-01-04T13:05:54.050Z,100.00
2023-01-04T13:08:24.669Z,100.00
2023-01-04T13:11:13.633Z,100.00
2023-01-04T13:14:07.632Z,100.00
2023-01-04T13:17:21.714Z,100.00
2023-01-04T13:20:20.646Z,100.00
2023-01-04T13:23:06.645Z,100.00
2023-01-04T13:25:53.643Z,100.00
2023-01-04T13:28:26.719Z,100.00
2023-01-04T13:31:13.719Z,100.00
2023-01-04T13:33:46.718Z,100.00
2023-01-04T13:36:33.643Z,100.00
2023-01-04T13:39:06.755Z,100.00
2023-01-04T13:41:53.655Z,100.00
2023-01-04T13:45:00.167Z,100.00
2023-01-04T13:47:45.638Z,100.00
2023-01-04T13:50:32.762Z,100.00
2023-01-04T13:53:45.636Z,100.00
2023-01-04T13:56:33.656Z,100.00
2023-01-04T13:59:21.654Z,100.00
2023-01-04T14:01:55.849Z,100.00
2023-01-04T14:04:43.649Z,100.00
2023-01-04T14:07:16.840Z,100.00
2023-01-04T14:10:06.653Z,100.00
2023-01-04T14:12:40.735Z,100.00
2023-01-04T14:15:32.691Z,100.00
2023-01-04T14:18:06.776Z,100.00
2023-01-04T14:20:53.640Z,100.00
2023-01-04T14:23:49.687Z,100.00
2023-01-04T14:26:48.647Z,100.00
2023-01-04T14:29:45.663Z,100.00
2023-01-04T14:32:40.648Z,100.00
2023-01-04T14:35:28.669Z,100.00
2023-01-04T14:38:08.760Z,100.00
2023-01-04T14:40:58.638Z,100.00
2023-01-04T14:43:50.672Z,100.00
2023-01-04T14:46:45.715Z,100.00
2023-01-04T14:49:39.665Z,100.00
2023-01-04T14:52:36.672Z,100.00
2023-01-04T14:55:31.672Z,100.00
2023-01-04T14:58:25.662Z,100.00
2023-01-04T15:01:12.754Z,100.00
2023-01-04T15:03:45.837Z,100.00
2023-01-04T15:06:32.655Z,100.00
2023-01-04T15:09:05.814Z,100.00
2023-01-04T15:11:52.675Z,100.00
2023-01-04T15:14:25.859Z,100.00
2023-01-04T15:17:12.670Z,100.00
2023-01-04T15:19:45.745Z,100.00
2023-01-04T15:22:32.684Z,100.00
2023-01-04T15:25:06.717Z,100.00
2023-01-04T15:27:53.684Z,100.00
2023-01-04T15:30:33.686Z,100.00
2023-01-04T15:33:20.719Z,100.00
2023-01-04T15:35:53.821Z,100.00
2023-01-04T15:38:41.674Z,100.00
2023-01-04T15:41:57.685Z,100.00
2023-01-04T15:44:51.703Z,100.00
2023-01-04T15:47:39.673Z,100.00
2023-01-04T15:50:19.698Z,100.00
2023-01-04T15:53:13.701Z,100.00
2023-01-04T15:56:00.709Z,100.00
2023-01-04T15:58:40.714Z,100.00
2023-01-04T16:01:28.759Z,100.00
2023-01-04T16:04:02.735Z,100.00
2023-01-04T16:06:49.721Z,100.00
2023-01-04T16:09:22.935Z,100.00
2023-01-04T16:12:28.694Z,100.00
2023-01-04T16:15:08.704Z,100.00
2023-01-04T16:17:56.677Z,100.00
2023-01-04T16:20:36.701Z,100.00
2023-01-04T16:23:30.708Z,100.00
2023-01-04T16:26:20.715Z,100.00
2023-01-04T16:29:05.687Z,100.00
2023-01-04T16:31:52.734Z,100.00
2023-01-04T16:34:25.819Z,100.00
2023-01-04T16:37:12.692Z,100.00
2023-01-04T16:42:57.700Z,100.00
2023-01-04T16:45:30.873Z,100.00
2023-01-04T16:48:18.726Z,100.00
2023-01-04T16:50:58.736Z,100.00
2023-01-04T16:53:52.720Z,100.00
2023-01-04T16:56:40.740Z,100.00
2023-01-04T16:59:16.082Z,100.00
2023-01-04T17:02:02.857Z,100.00
2023-01-04T17:04:35.829Z,100.00
2023-01-04T17:07:22.720Z,100.00
2023-01-04T17:09:57.548Z,100.00
2023-01-04T17:12:48.221Z,100.00
2023-01-04T17:15:43.105Z,100.00
2023-01-04T17:18:30.734Z,100.00
2023-01-04T17:21:33.082Z,100.00
2023-01-04T17:24:26.753Z,100.00
2023-01-04T17:27:20.716Z,100.00
2023-01-04T17:30:14.720Z,100.00
2023-01-04T17:33:08.741Z,100.00
2023-01-04T17:36:03.728Z,100.00
2023-01-04T17:38:50.728Z,100.00
2023-01-04T17:41:36.717Z,100.00
2023-01-04T17:44:30.882Z,100.00
2023-01-04T17:47:17.754Z,100.00
2023-01-04T17:49:50.880Z,100.00
2023-01-04T17:52:37.726Z,100.00
2023-01-04T17:55:18.746Z,99.70
2023-01-04T17:58:13.236Z,99.95
2023-01-04T18:01:08.857Z,99.72
2023-01-04T18:04:03.751Z,99.15
2023-01-04T18:06:46.731Z,99.49
2023-01-04T18:09:40.752Z,99.75
2023-01-04T18:12:28.751Z,99.86
2023-01-04T18:15:06.409Z,100.00
2023-01-04T18:17:52.757Z,100.00
2023-01-04T18:20:25.847Z,100.00
2023-01-04T18:23:24.226Z,99.93
2023-01-04T18:25:58.859Z,100.00
2023-01-04T18:28:45.732Z,100.00
2023-01-04T18:31:31.044Z,99.75
2023-01-04T18:34:18.726Z,99.32
2023-01-04T18:36:59.755Z,98.20
2023-01-04T18:39:46.764Z,98.40
2023-01-04T18:42:19.920Z,98.11
2023-01-04T18:45:06.744Z,98.07
2023-01-04T18:47:39.918Z,97.67
2023-01-04T18:50:26.757Z,97.93
2023-01-04T18:53:08.752Z,98.07
2023-01-04T18:55:55.842Z,97.31
2023-01-04T18:58:28.920Z,97.46
2023-01-04T19:01:18.807Z,96.99
2023-01-04T19:04:00.763Z,96.97
2023-01-04T19:06:54.769Z,97.13
2023-01-04T19:09:41.768Z,97.19
2023-01-04T19:12:14.970Z,97.75
2023-01-04T19:15:04.775Z,97.65
2023-01-04T19:17:38.852Z,97.43
2023-01-04T19:20:25.757Z,97.45
2023-01-04T19:23:05.748Z,97.67
2023-01-04T19:25:59.763Z,97.76
2023-01-04T19:28:53.769Z,97.91
2023-01-04T19:31:47.764Z,97.81
2023-01-04T19:34:42.896Z,98.03
2023-01-04T19:37:32.760Z,97.93
2023-01-04T19:40:05.865Z,98.19
2023-01-04T19:42:54.918Z,97.45
2023-01-04T19:45:34.810Z,98.25
2023-01-04T19:48:24.782Z,98.15
2023-01-04T19:51:24.758Z,97.70
2023-01-04T19:54:25.024Z,98.05
2023-01-04T19:57:12.799Z,98.19
2023-01-04T19:59:52.776Z,98.32
2023-01-04T20:02:40.894Z,98.49
2023-01-04T20:05:21.764Z,98.36
2023-01-04T20:08:15.828Z,97.65
2023-01-04T20:11:04.782Z,97.88
2023-01-04T20:13:45.829Z,97.57
2023-01-04T20:16:39.873Z,98.08
2023-01-04T20:19:26.775Z,98.17
2023-01-04T20:21:59.935Z,98.51
2023-01-04T20:24:46.799Z,98.52
2023-01-04T20:27:19.926Z,98.86
2023-01-04T20:30:25.834Z,98.95
2023-01-04T20:33:13.833Z,99.07
2023-01-04T20:35:52.371Z,99.09
2023-01-04T20:38:40.085Z,99.22
2023-01-04T20:41:16.551Z,99.44
2023-01-04T20:44:02.804Z,100.00
2023-01-04T20:46:38.058Z,100.00
2023-01-04T20:49:24.799Z,99.89
2023-01-04T20:52:04.813Z,100.00
2023-01-04T20:55:01.841Z,100.00
2023-01-04T20:57:48.789Z,100.00
2023-01-04T21:00:21.943Z,100.00
2023-01-04T21:03:09.152Z,100.00
2023-01-04T21:05:51.017Z,100.00
2023-01-04T21:08:37.879Z,100.00
2023-01-04T21:11:18.799Z,100.00
2023-01-04T21:14:12.919Z,100.00
2023-01-04T21:17:06.858Z,100.00
2023-01-04T21:19:53.837Z,100.00
2023-01-04T21:22:33.867Z,100.00
2023-01-04T21:25:20.932Z,100.00
2023-01-04T21:27:53.978Z,100.00
2023-01-04T21:30:47.916Z,100.00
2023-01-04T21:33:41.856Z,100.00
2023-01-04T21:36:30.873Z,100.00
2023-01-04T21:39:05.960Z,100.00
2023-01-04T21:41:53.842Z,100.00
2023-01-04T21:44:33.882Z,100.00
2023-01-04T21:47:21.879Z,100.00
2023-01-04T21:50:01.854Z,100.00
2023-01-04T21:52:55.848Z,100.00
2023-01-04T21:55:42.894Z,100.00
2023-01-04T21:58:15.978Z,100.00
2023-01-04T22:01:02.881Z,100.00
2023-01-04T22:03:36.956Z,100.00
2023-01-04T22:06:24.868Z,100.00
2023-01-04T22:09:05.843Z,100.00
2023-01-04T22:11:59.870Z,100.00
2023-01-04T22:14:46.867Z,100.00
2023-01-04T22:17:22.042Z,100.00
2023-01-04T22:20:08.859Z,100.00
2023-01-04T22:22:41.957Z,100.00
2023-01-04T22:25:28.928Z,100.00
2023-01-04T22:28:01.988Z,100.00
2023-01-04T22:30:55.898Z,100.00
2023-01-04T22:33:50.869Z,100.00
2023-01-04T22:36:44.864Z,100.00
2023-01-04T22:39:31.837Z,100.00
2023-01-04T22:42:11.864Z,100.00
2023-01-04T22:44:58.873Z,100.00
2023-01-04T22:47:32.050Z,100.00
2023-01-04T22:50:18.866Z,100.00
2023-01-04T22:52:52.398Z,100.00
2023-01-04T22:56:00.292Z,100.00
2023-01-04T22:58:31.974Z,100.00
2023-01-04T23:01:18.901Z,100.00
2023-01-04T23:03:52.413Z,100.00
2023-01-04T23:06:39.843Z,100.00
2023-01-04T23:09:13.979Z,100.00
2023-01-04T23:12:00.872Z,100.00
2023-01-04T23:14:40.877Z,100.00
2023-01-04T23:17:36.866Z,100.00
2023-01-04T23:20:30.875Z,100.00
2023-01-04T23:23:29.594Z,100.00
2023-01-04T23:26:24.871Z,100.00
2023-01-04T23:28:59.031Z,100.00
2023-01-04T23:31:54.945Z,100.00
2023-01-04T23:34:48.871Z,100.00
2023-01-04T23:37:37.869Z,100.00
2023-01-04T23:40:18.858Z,100.00
2023-01-04T23:43:12.920Z,100.00
2023-01-04T23:45:59.864Z,100.00
2023-01-04T23:48:33.205Z,100.00
2023-01-04T23:51:19.861Z,100.00
2023-01-04T23:53:53.043Z,100.00
2023-01-04T23:56:39.958Z,100.00
2023-01-04T23:59:14.014Z,100.00
